Page Field
KFMY : rendu visible

Aérodrome :











RETROUVEZ-NOUS SUR...

 
LOGIN :

S'inscrire | Disclaimer

   EN    FR    IT 

 









Légende :    VFR   VFR Marginal   IFR   IFR Intensif   IFR Très Intensif
Visi : 
Plafond : 
>= 8 km
>= 3000ft
5 à 8 km
1000 à 3000 ft
1500m à 5 km
500 à 1000 ft
800 à 1500m
200 à 500 ft
< 800m
< 200 ft
Symboles :   Orages  Brouillard  Fortes neiges  Fortes précipitations  Vent > 20 kt






- Altitude de l'aérodrome : 17 ft


KFMY - Page Field

DERNIER METAR :
  • 100753Z AUTO 27008KT 9SM CLR 25/23 A2981 RMK AO2 SLP097 T02500228

METARs EXPIRÉS :
  • 100653Z AUTO 26009KT 10SM SCT010 25/23 A2982 RMK AO2 SLP100 T02500228
  • 100553Z AUTO 26008KT 10SM CLR 25/23 A2983 RMK AO2 SLP102 T02500228 10272 20250 57010

TAF KFMY
Valide du 10 à 06h jusqu'au 11 à 06h UTC


100528Z 1006/1106 26009KT P6SM SCT020 BKN100
FM100800 26009KT P6SM SCT010 BKN020 OVC080
FM101500 29010G15KT P6SM BKN015 OVC060
FM101800 29015G20KT P6SM VCSH BKN030 OVC050
FM102100 29017G23KT P6SM VCSH SCT020 BKN050
FM110100 01007KT P6SM SCT020 BKN050



MET'MAP, la Météo Aéronautique d'un coup d'oeil ! - Copyright ORBIFLY Décembre 2007 - Disclaimer

ORBIFLY MET'MAP TEAM :

Programmation & Développement : Alexandra Zaïnal
Sur une idée originale de : Baudouin d'Aumeries
Assistance à la programmation : Marc-Olivier Méhu
Soutien technique & logistique : Manuel Goepfert

Contact : metmap@orbifly.com




SOURCES & CREDITS :

   NOAA       Earth
Advisory